Sidney, MT

10:55 PM MDT on September 30, 2014 (GMT -0600)
Sidney-Richland Municipal | Change Station
CLOSE
Current Station
Airport
Location: Sidney-Richland,
Elevation: 1985 ft
Nearby Weather Stations

Elev 1985 ft 47.71 °N, 104.19 °W | Updated 20 minutes ago

Scattered Clouds
Scattered Clouds
54 °F
Feels Like 54 °F
N
8
Wind Variable Wind from WSW

Today
High -- | Low -- °F
--% Chance of Precip.
Yesterday
High -- | Low -- °F
Precip. -- in
6:54 AM 6:37 PM
Waxing Crescent, 43% visible
Pressure 29.53 in
Visibility 10.0 miles
Clouds Few 3500 ft
Scattered Clouds 4300 ft
Scattered Clouds 4900 ft
Dew Point 52 °F
Humidity 94%
Rainfall 1.62 in
Snow Depth 1 in , 0 in , 0 in
UV 0 out of 12
Pollen .40 out of 12
Air Quality Not available.
Flu Activity Not available.
METAR KSDY 010435Z AUTO 25007KT 10SM FEW035 SCT043 SCT049 12/11 A2953 RMK AO1 P0004

More Conditions Fewer Conditions

Pressure 29.53 in
Visibility 10.0 miles
Clouds Few 3500 ft
Scattered Clouds 4300 ft
Scattered Clouds 4900 ft
Dew Point 52 °F
Humidity 94%
Rainfall 1.62 in
Snow Depth 1 in , 0 in , 0 in
UV 0 out of 12
Pollen .40 out of 12
Air Quality Not available.
Flu Activity Not available.
METAR KSDY 010435Z AUTO 25007KT 10SM FEW035 SCT043 SCT049 12/11 A2953 RMK AO1 P0004

More Conditions Fewer Conditions

10-Day Weather Forecast

Almanac

Astronomy

Sep. 30, 2014 Rise Set
Actual Time 6:54 AM MDT 6:37 PM MDT
Civil Twilight 6:23 AM MDT 7:08 PM MDT
Nautical Twilight 5:47 AM MDT 7:44 PM MDT
Astronomical Twilight 5:11 AM MDT 8:20 PM MDT
Moon 1:24 PM MDT (9/30) 10:51 PM MDT (9/30)
Length of Visible Light 12h 44m
Length of Day
11h 43m
Tomorrow will be 3m 25s shorter.
Waxing Crescent, 43% of the Moon is Illuminated
Oct 1
Waxing Crescent
Oct 1
First Quarter
Oct 8
Full
Oct 15
Last Quarter
Oct 23
New

Yesterday's Extremes

State Highs State Lows

Community

WunderPhotos

Upload Photos

1,757,847 photos uploaded!

Nearby

Snow Depth

Station Depth Elevation
Darkhorse Lake 1 in 8700 ft
Moss Peak 0 in 6780 ft
Deadman Creek 0 in 6450 ft
Albro Lake 3 in 8300 ft
Divide 0 in 7800 ft

Earthquake Activity

City Distance Mag. Time & Date
No recent earthquake activity has been reported nearby.
Minimum magnitude displayed is 2.5.

Coastal Water Temperatures

Place Temperature
No Stations Reporting

Nearby Weather Stations